Time;durP1;ratioP1;P1;durP2;ratioP2;P2;SDS_P1;SDS_P2;PMS_P1;PMS_P2;Temp;Humidity;BMP_temperature;BMP_pressure;BME280_temperature;BME280_humidity;BME280_pressure;Samples;Min_cycle;Max_cycle;Signal;HPM_P1;HPM_P2
2023/06/11 00:00:22;;;;;;;;;;;27.50;44.60;;;;;;5053147;28;19909;-53
2023/06/11 00:02:53;;;;;;;;;;;27.40;44.30;;;;;;5064413;28;19913;-54
2023/06/11 00:05:20;;;;;;;;;;;27.40;44.30;;;;;;5069513;28;19923;-54
2023/06/11 00:07:45;;;;;;;;;;;27.40;44.30;;;;;;5103602;28;19917;-53
2023/06/11 00:10:11;;;;;;;;;;;27.40;44.40;;;;;;5054925;28;19927;-53
2023/06/11 00:12:36;;;;;;;;;;;27.40;44.10;;;;;;5072895;28;20360;-53
2023/06/11 00:15:02;;;;;;;;;;;27.40;44.20;;;;;;5072741;28;19908;-53
2023/06/11 00:17:28;;;;;;;;;;;27.40;44.30;;;;;;5059228;28;19942;-53
2023/06/11 00:19:55;;;;;;;;;;;27.40;44.10;;;;;;5071506;28;19919;-53
2023/06/11 00:22:22;;;;;;;;;;;27.40;44.00;;;;;;5071037;28;19965;-52
2023/06/11 00:24:48;;;;;;;;;;;27.40;44.00;;;;;;5097096;28;19973;-53
2023/06/11 00:27:13;;;;;;;;;;;27.40;43.90;;;;;;5053496;28;20440;-55
2023/06/11 00:29:41;;;;;;;;;;;27.40;44.20;;;;;;5054645;28;20342;-55
2023/06/11 00:32:07;;;;;;;;;;;27.40;43.90;;;;;;5060398;28;19956;-54
2023/06/11 00:34:32;;;;;;;;;;;27.30;43.80;;;;;;5072217;28;19913;-54
2023/06/11 00:36:59;;;;;;;;;;;27.40;44.10;;;;;;5071677;28;19909;-55
2023/06/11 00:39:25;;;;;;;;;;;27.30;43.60;;;;;;5056164;28;19917;-55
2023/06/11 00:41:51;;;;;;;;;;;27.30;43.40;;;;;;5052283;28;19916;-55
2023/06/11 00:44:21;;;;;;;;;;;27.30;43.80;;;;;;5051717;28;19925;-55
2023/06/11 00:46:47;;;;;;;;;;;27.30;43.40;;;;;;5059471;28;19913;-54
2023/06/11 00:49:13;;;;;;;;;;;27.30;43.60;;;;;;5090857;28;19913;-54
2023/06/11 00:51:41;;;;;;;;;;;27.30;43.40;;;;;;5063785;28;19916;-55
2023/06/11 00:54:07;;;;;;;;;;;27.30;43.30;;;;;;5071609;28;19938;-55
2023/06/11 00:56:33;;;;;;;;;;;27.30;43.50;;;;;;5070381;28;19916;-55
2023/06/11 00:59:00;;;;;;;;;;;27.30;43.50;;;;;;5056891;28;19955;-55
2023/06/11 01:01:29;;;;;;;;;;;27.20;43.20;;;;;;5052452;28;19916;-55
2023/06/11 01:03:54;;;;;;;;;;;27.30;43.30;;;;;;5071331;28;19912;-54
2023/06/11 01:06:21;;;;;;;;;;;27.30;43.50;;;;;;5069101;28;20284;-54
2023/06/11 01:08:52;;;;;;;;;;;27.30;43.30;;;;;;5094815;28;20387;-55
2023/06/11 01:11:21;;;;;;;;;;;27.20;43.20;;;;;;5097533;28;19916;-55
2023/06/11 01:13:47;;;;;;;;;;;27.20;43.30;;;;;;5072159;28;19909;-55
2023/06/11 01:16:17;;;;;;;;;;;27.20;43.10;;;;;;5065093;28;19916;-55
2023/06/11 01:18:46;;;;;;;;;;;27.20;43.10;;;;;;5054228;28;20018;-55
2023/06/11 01:21:13;;;;;;;;;;;27.20;43.00;;;;;;5061731;28;19946;-55
2023/06/11 01:23:42;;;;;;;;;;;27.20;43.10;;;;;;5103494;28;19935;-55
2023/06/11 01:26:26;;;;;;;;;;;27.20;43.10;;;;;;5066125;28;19921;-55
2023/06/11 01:28:54;;;;;;;;;;;27.20;43.00;;;;;;5066299;28;20318;-55
2023/06/11 01:31:20;;;;;;;;;;;27.20;43.00;;;;;;5070191;28;19916;-55
2023/06/11 01:33:45;;;;;;;;;;;27.20;43.00;;;;;;5054037;28;20258;-55
2023/06/11 01:36:11;;;;;;;;;;;27.20;42.90;;;;;;5085096;28;19912;-55
2023/06/11 01:38:41;;;;;;;;;;;27.20;43.10;;;;;;5104621;28;19909;-55
2023/06/11 01:41:08;;;;;;;;;;;27.20;42.80;;;;;;5077549;28;20643;-55
2023/06/11 01:43:33;;;;;;;;;;;27.20;42.90;;;;;;5059753;28;19974;-55
2023/06/11 01:45:58;;;;;;;;;;;27.10;42.80;;;;;;5070249;28;20195;-54
2023/06/11 01:48:24;;;;;;;;;;;27.20;42.90;;;;;;5070567;28;19958;-54
2023/06/11 01:50:50;;;;;;;;;;;27.10;42.80;;;;;;5052890;28;19916;-55
2023/06/11 01:53:16;;;;;;;;;;;27.10;42.70;;;;;;5068448;28;19943;-54
2023/06/11 01:55:42;;;;;;;;;;;27.10;42.60;;;;;;5061963;28;19913;-54
2023/06/11 01:58:08;;;;;;;;;;;27.10;42.50;;;;;;5059259;28;20423;-55
2023/06/11 02:00:33;;;;;;;;;;;27.10;42.80;;;;;;5050782;28;19912;-54
2023/06/11 02:03:05;;;;;;;;;;;27.10;42.50;;;;;;5065084;28;19909;-55
2023/06/11 02:05:30;;;;;;;;;;;27.10;42.50;;;;;;5076384;28;19917;-55
2023/06/11 02:07:56;;;;;;;;;;;27.10;42.30;;;;;;5051459;28;19912;-55
2023/06/11 02:10:21;;;;;;;;;;;27.10;42.40;;;;;;5065011;28;19927;-55
2023/06/11 02:12:47;;;;;;;;;;;27.10;42.50;;;;;;5075124;28;20262;-54
2023/06/11 02:15:12;;;;;;;;;;;27.10;42.40;;;;;;5105379;28;19932;-55
2023/06/11 02:17:38;;;;;;;;;;;27.10;42.40;;;;;;5058351;28;19917;-55
2023/06/11 02:20:08;;;;;;;;;;;27.10;42.30;;;;;;5054389;28;19962;-55
2023/06/11 02:22:33;;;;;;;;;;;27.10;42.30;;;;;;5054820;28;19920;-55
2023/06/11 02:24:59;;;;;;;;;;;27.00;42.20;;;;;;5055351;28;19909;-55
2023/06/11 02:27:24;;;;;;;;;;;27.00;42.20;;;;;;5068216;28;20313;-54
2023/06/11 02:29:50;;;;;;;;;;;27.00;42.30;;;;;;5065564;28;19913;-55
2023/06/11 02:32:15;;;;;;;;;;;27.00;42.20;;;;;;5065892;28;20360;-55
2023/06/11 02:34:41;;;;;;;;;;;27.00;42.20;;;;;;5074613;28;19912;-55
2023/06/11 02:37:07;;;;;;;;;;;27.10;42.20;;;;;;5072749;28;20378;-55
2023/06/11 02:39:33;;;;;;;;;;;27.00;42.10;;;;;;5060056;28;19913;-55
2023/06/11 02:41:58;;;;;;;;;;;26.90;42.20;;;;;;5070156;28;20007;-55
2023/06/11 02:44:24;;;;;;;;;;;27.00;42.20;;;;;;5073278;28;19927;-55
2023/06/11 02:46:49;;;;;;;;;;;26.90;42.00;;;;;;5072446;28;20291;-56
2023/06/11 02:49:15;;;;;;;;;;;27.00;42.20;;;;;;5063936;28;19917;-55
2023/06/11 02:51:40;;;;;;;;;;;27.00;41.90;;;;;;5063239;28;19927;-55
2023/06/11 02:54:06;;;;;;;;;;;27.00;42.10;;;;;;5105977;28;19919;-55
2023/06/11 02:56:32;;;;;;;;;;;26.90;42.00;;;;;;5072614;28;19912;-55
2023/06/11 02:58:58;;;;;;;;;;;26.90;42.00;;;;;;5066347;28;19919;-55
2023/06/11 03:01:23;;;;;;;;;;;26.90;42.00;;;;;;5063800;28;19917;-55
2023/06/11 03:03:49;;;;;;;;;;;26.90;42.10;;;;;;5058736;28;20066;-56
2023/06/11 03:06:14;;;;;;;;;;;26.90;41.80;;;;;;5062552;28;20430;-54
2023/06/11 03:08:40;;;;;;;;;;;26.90;41.90;;;;;;5068414;28;19917;-54
2023/06/11 03:11:05;;;;;;;;;;;26.90;42.00;;;;;;5061297;28;20308;-55
2023/06/11 03:13:31;;;;;;;;;;;26.90;41.90;;;;;;5074041;28;20392;-55
2023/06/11 03:15:56;;;;;;;;;;;26.90;41.70;;;;;;5071794;28;20293;-55
2023/06/11 03:18:22;;;;;;;;;;;26.80;41.70;;;;;;5070960;28;19920;-55
2023/06/11 03:20:47;;;;;;;;;;;26.90;41.80;;;;;;5089183;28;19912;-54
2023/06/11 03:23:13;;;;;;;;;;;26.90;41.90;;;;;;5073568;28;20368;-55
2023/06/11 03:25:38;;;;;;;;;;;26.80;41.70;;;;;;5059565;28;19920;-54
2023/06/11 03:28:04;;;;;;;;;;;26.80;41.70;;;;;;5071323;28;19909;-55
2023/06/11 03:30:29;;;;;;;;;;;26.80;41.50;;;;;;5071958;28;19916;-55
2023/06/11 03:32:55;;;;;;;;;;;26.70;41.60;;;;;;5060765;28;19923;-55
2023/06/11 03:35:20;;;;;;;;;;;26.80;41.60;;;;;;5053436;28;19909;-55
2023/06/11 03:37:46;;;;;;;;;;;26.80;41.60;;;;;;5053875;28;19909;-54
2023/06/11 03:40:11;;;;;;;;;;;26.80;41.50;;;;;;5052629;28;19913;-54
2023/06/11 03:42:37;;;;;;;;;;;26.80;41.60;;;;;;5061169;28;20289;-54
2023/06/11 03:45:02;;;;;;;;;;;26.70;41.50;;;;;;5066001;28;19952;-55
2023/06/11 03:47:28;;;;;;;;;;;26.80;41.90;;;;;;5053680;28;19916;-54
2023/06/11 03:49:53;;;;;;;;;;;26.70;41.40;;;;;;5069232;28;19909;-55
2023/06/11 03:52:19;;;;;;;;;;;26.70;41.60;;;;;;5073373;28;19908;-56
2023/06/11 03:54:44;;;;;;;;;;;26.70;41.50;;;;;;5101611;28;20023;-53
2023/06/11 03:57:10;;;;;;;;;;;26.70;41.70;;;;;;5096174;28;20299;-53
2023/06/11 03:59:35;;;;;;;;;;;26.70;41.70;;;;;;5061326;28;19923;-53
2023/06/11 04:02:01;;;;;;;;;;;26.70;41.70;;;;;;5055842;28;19923;-53
2023/06/11 04:04:26;;;;;;;;;;;26.70;41.60;;;;;;5056264;28;19919;-54
2023/06/11 04:06:52;;;;;;;;;;;26.70;41.60;;;;;;5064365;28;19920;-53
2023/06/11 04:09:17;;;;;;;;;;;26.70;41.50;;;;;;5067166;28;19920;-54
2023/06/11 04:11:43;;;;;;;;;;;26.70;41.70;;;;;;5067562;28;19964;-53
2023/06/11 04:14:08;;;;;;;;;;;26.70;41.70;;;;;;5072822;28;19916;-53
2023/06/11 04:16:34;;;;;;;;;;;26.70;41.60;;;;;;5061694;28;19913;-53
2023/06/11 04:18:59;;;;;;;;;;;26.60;41.60;;;;;;5102596;28;19943;-53
2023/06/11 04:21:25;;;;;;;;;;;26.70;41.60;;;;;;5071248;28;19966;-53
2023/06/11 04:23:51;;;;;;;;;;;26.60;41.50;;;;;;5071076;28;19957;-53
2023/06/11 04:26:19;;;;;;;;;;;26.60;41.60;;;;;;5059605;28;19924;-53
2023/06/11 04:28:45;;;;;;;;;;;26.60;41.50;;;;;;5056127;28;19935;-53
2023/06/11 04:31:14;;;;;;;;;;;26.60;41.70;;;;;;5062509;28;19924;-54
2023/06/11 04:33:40;;;;;;;;;;;26.60;41.80;;;;;;5065607;28;19962;-54
2023/06/11 04:36:10;;;;;;;;;;;26.60;41.60;;;;;;5068948;28;19956;-53
2023/06/11 04:38:37;;;;;;;;;;;26.60;41.70;;;;;;5064696;28;20013;-53
2023/06/11 04:41:05;;;;;;;;;;;26.60;41.60;;;;;;5069172;28;20456;-53
2023/06/11 04:43:33;;;;;;;;;;;26.60;41.80;;;;;;5053857;28;19964;-53
2023/06/11 04:46:03;;;;;;;;;;;26.60;41.70;;;;;;5069387;28;19916;-53
2023/06/11 04:48:31;;;;;;;;;;;26.60;41.80;;;;;;5067658;28;19913;-53
2023/06/11 04:50:59;;;;;;;;;;;26.60;41.70;;;;;;5060746;28;19912;-54
2023/06/11 04:53:27;;;;;;;;;;;26.60;41.90;;;;;;5086345;28;19955;-54
2023/06/11 04:55:54;;;;;;;;;;;26.60;41.70;;;;;;5059047;28;19909;-53
2023/06/11 04:58:21;;;;;;;;;;;26.60;41.90;;;;;;5061292;28;19916;-54
2023/06/11 05:00:49;;;;;;;;;;;26.60;41.90;;;;;;5057370;28;20371;-53
2023/06/11 05:03:18;;;;;;;;;;;26.50;41.70;;;;;;5056368;28;20025;-53
2023/06/11 05:05:49;;;;;;;;;;;26.50;41.90;;;;;;5073378;28;19953;-54
2023/06/11 05:08:15;;;;;;;;;;;26.50;41.90;;;;;;5069422;28;20399;-54
2023/06/11 05:10:41;;;;;;;;;;;26.50;42.50;;;;;;5093247;28;20040;-53
2023/06/11 05:13:06;;;;;;;;;;;26.50;41.90;;;;;;5057607;28;20433;-53
2023/06/11 05:15:32;;;;;;;;;;;26.50;41.80;;;;;;5088542;28;20292;-53
2023/06/11 05:17:57;;;;;;;;;;;26.50;41.90;;;;;;5072221;28;19920;-53
2023/06/11 05:20:26;;;;;;;;;;;26.50;41.90;;;;;;5099156;28;19954;-53
2023/06/11 05:22:53;;;;;;;;;;;26.50;41.90;;;;;;5052412;28;20391;-53
2023/06/11 05:25:19;;;;;;;;;;;26.50;41.90;;;;;;5084637;28;19916;-53
2023/06/11 05:27:45;;;;;;;;;;;26.50;42.50;;;;;;5052174;28;19917;-53
2023/06/11 05:30:10;;;;;;;;;;;26.50;41.90;;;;;;5060077;28;20138;-54
2023/06/11 05:32:36;;;;;;;;;;;26.50;41.90;;;;;;5066124;28;19919;-53
2023/06/11 05:35:03;;;;;;;;;;;26.50;42.00;;;;;;5104218;28;19919;-54
2023/06/11 05:37:29;;;;;;;;;;;26.50;41.90;;;;;;5071894;28;19919;-53
2023/06/11 05:39:54;;;;;;;;;;;26.50;42.00;;;;;;5069970;28;20368;-54
2023/06/11 05:42:20;;;;;;;;;;;26.40;41.90;;;;;;5071584;28;19912;-54
2023/06/11 05:44:45;;;;;;;;;;;26.40;42.00;;;;;;5059975;28;19913;-53
2023/06/11 05:47:11;;;;;;;;;;;26.50;42.20;;;;;;5056421;28;19970;-53
2023/06/11 05:49:36;;;;;;;;;;;26.50;42.10;;;;;;5055357;28;19920;-53
2023/06/11 05:52:02;;;;;;;;;;;26.50;42.20;;;;;;5088075;28;19917;-53
2023/06/11 05:54:27;;;;;;;;;;;26.50;42.20;;;;;;5054592;28;19936;-53
2023/06/11 05:56:53;;;;;;;;;;;26.50;42.10;;;;;;5057107;28;20258;-54
2023/06/11 05:59:18;;;;;;;;;;;26.40;42.00;;;;;;5066022;28;19962;-53
2023/06/11 06:01:45;;;;;;;;;;;26.50;42.20;;;;;;5057935;28;20040;-53
2023/06/11 06:04:12;;;;;;;;;;;26.50;41.90;;;;;;5069958;28;19913;-55
2023/06/11 06:06:37;;;;;;;;;;;26.50;42.10;;;;;;5106774;28;19913;-53
2023/06/11 06:09:04;;;;;;;;;;;26.50;42.00;;;;;;5071726;28;19921;-53
2023/06/11 06:11:29;;;;;;;;;;;26.40;42.00;;;;;;5060367;28;19916;-53
2023/06/11 06:13:55;;;;;;;;;;;26.40;42.10;;;;;;5057100;28;20070;-53
2023/06/11 06:16:20;;;;;;;;;;;26.40;42.20;;;;;;5063953;28;19916;-53
2023/06/11 06:18:46;;;;;;;;;;;26.40;42.00;;;;;;5075087;28;19915;-53
2023/06/11 06:21:11;;;;;;;;;;;26.40;42.00;;;;;;5059389;28;19916;-53
2023/06/11 06:23:37;;;;;;;;;;;26.50;42.00;;;;;;5056086;28;19913;-53
2023/06/11 06:26:03;;;;;;;;;;;26.50;42.10;;;;;;5062839;28;19913;-53
2023/06/11 06:28:30;;;;;;;;;;;26.40;42.10;;;;;;5055045;28;19919;-54
2023/06/11 06:30:56;;;;;;;;;;;26.40;42.20;;;;;;5055923;28;19921;-53
2023/06/11 06:33:23;;;;;;;;;;;26.40;42.10;;;;;;5055932;28;19917;-53
2023/06/11 06:35:49;;;;;;;;;;;26.40;42.10;;;;;;5057035;28;20008;-53
2023/06/11 06:38:14;;;;;;;;;;;26.40;42.10;;;;;;5054769;28;19948;-53
2023/06/11 06:40:40;;;;;;;;;;;26.40;42.00;;;;;;5053477;28;19928;-54
2023/06/11 06:43:06;;;;;;;;;;;26.40;42.00;;;;;;5070164;28;19928;-54
2023/06/11 06:45:33;;;;;;;;;;;26.40;42.20;;;;;;5066568;28;19912;-53
2023/06/11 06:47:58;;;;;;;;;;;26.40;42.30;;;;;;5060500;28;19919;-54
2023/06/11 06:50:24;;;;;;;;;;;26.40;42.20;;;;;;5067802;28;19916;-54
2023/06/11 06:52:50;;;;;;;;;;;26.40;42.10;;;;;;5073961;28;20319;-53
2023/06/11 06:55:15;;;;;;;;;;;26.40;42.10;;;;;;5103677;28;19946;-53
2023/06/11 06:57:40;;;;;;;;;;;26.40;42.00;;;;;;5070015;28;20396;-54
2023/06/11 07:00:07;;;;;;;;;;;26.40;42.10;;;;;;5053757;28;19951;-53
2023/06/11 07:02:33;;;;;;;;;;;26.40;42.20;;;;;;5053643;28;19912;-54
2023/06/11 07:04:58;;;;;;;;;;;26.40;42.20;;;;;;5070606;28;19958;-53
2023/06/11 07:07:24;;;;;;;;;;;26.40;42.20;;;;;;5074129;28;19974;-53
2023/06/11 07:09:50;;;;;;;;;;;26.40;42.20;;;;;;5072182;28;19919;-53
2023/06/11 07:12:15;;;;;;;;;;;26.40;42.30;;;;;;5067055;28;19928;-53
2023/06/11 07:14:41;;;;;;;;;;;26.40;42.20;;;;;;5090265;28;20269;-53
2023/06/11 07:17:06;;;;;;;;;;;26.40;42.20;;;;;;5052957;28;19913;-54
2023/06/11 07:19:31;;;;;;;;;;;26.40;42.20;;;;;;5053816;28;19913;-53
2023/06/11 07:21:57;;;;;;;;;;;26.40;42.10;;;;;;5053545;28;20399;-54
2023/06/11 07:24:23;;;;;;;;;;;26.40;42.20;;;;;;5056565;28;19913;-53
2023/06/11 07:26:48;;;;;;;;;;;26.40;42.30;;;;;;5062479;28;19956;-53
2023/06/11 07:29:14;;;;;;;;;;;26.50;42.30;;;;;;5068074;28;19912;-54
2023/06/11 07:31:39;;;;;;;;;;;26.40;42.20;;;;;;5070798;28;19947;-54
2023/06/11 07:34:06;;;;;;;;;;;26.40;42.10;;;;;;5067411;28;19917;-55
2023/06/11 07:36:31;;;;;;;;;;;26.50;42.30;;;;;;5052293;28;19915;-53
2023/06/11 07:38:57;;;;;;;;;;;26.50;42.30;;;;;;5053608;28;19912;-54
2023/06/11 07:41:22;;;;;;;;;;;26.40;42.30;;;;;;5053074;28;19909;-53
2023/06/11 07:43:48;;;;;;;;;;;26.40;42.20;;;;;;5068069;28;19962;-53
2023/06/11 07:46:16;;;;;;;;;;;26.50;42.30;;;;;;5101758;28;19967;-53
2023/06/11 07:48:43;;;;;;;;;;;26.40;42.20;;;;;;5059061;28;19916;-53
2023/06/11 07:51:08;;;;;;;;;;;26.50;42.30;;;;;;5058187;28;19923;-53
2023/06/11 07:53:34;;;;;;;;;;;26.50;42.20;;;;;;5055517;28;20377;-53
2023/06/11 07:55:59;;;;;;;;;;;26.50;42.20;;;;;;5057342;28;19920;-54
2023/06/11 07:58:25;;;;;;;;;;;26.50;42.20;;;;;;5063419;28;19924;-54
2023/06/11 08:00:51;;;;;;;;;;;26.50;42.30;;;;;;5052851;28;19923;-53
2023/06/11 08:03:16;;;;;;;;;;;26.50;42.20;;;;;;5066212;28;19917;-54
2023/06/11 08:05:42;;;;;;;;;;;26.60;42.20;;;;;;5062106;28;19916;-53
2023/06/11 08:08:07;;;;;;;;;;;26.50;42.10;;;;;;5073045;28;19909;-53
2023/06/11 08:10:33;;;;;;;;;;;26.50;42.10;;;;;;5063809;28;19959;-54
2023/06/11 08:12:59;;;;;;;;;;;26.50;42.10;;;;;;5094827;28;19919;-54
2023/06/11 08:15:24;;;;;;;;;;;26.50;42.20;;;;;;5069346;28;19912;-54
2023/06/11 08:17:50;;;;;;;;;;;26.60;42.30;;;;;;5061502;28;20391;-53
2023/06/11 08:20:16;;;;;;;;;;;26.50;42.00;;;;;;5068301;28;19919;-53
2023/06/11 08:22:42;;;;;;;;;;;26.60;42.20;;;;;;5060034;28;19982;-54
2023/06/11 08:25:09;;;;;;;;;;;26.60;42.30;;;;;;5049973;28;19913;-53
2023/06/11 08:27:35;;;;;;;;;;;26.60;42.40;;;;;;5070891;28;20277;-54
2023/06/11 08:30:00;;;;;;;;;;;26.50;42.10;;;;;;5056815;28;19959;-53
2023/06/11 08:32:26;;;;;;;;;;;26.60;42.30;;;;;;5065365;28;19913;-54
2023/06/11 08:34:51;;;;;;;;;;;26.60;42.00;;;;;;5058470;28;19917;-53
2023/06/11 08:37:17;;;;;;;;;;;26.60;42.00;;;;;;5051752;28;20316;-53
2023/06/11 08:39:42;;;;;;;;;;;26.60;42.00;;;;;;5051774;28;19917;-53
2023/06/11 08:42:08;;;;;;;;;;;26.60;41.70;;;;;;5069487;28;20308;-53
2023/06/11 08:44:34;;;;;;;;;;;26.60;42.00;;;;;;5066988;28;19955;-53
2023/06/11 08:47:01;;;;;;;;;;;26.60;41.90;;;;;;5055838;28;20003;-53
2023/06/11 08:49:27;;;;;;;;;;;26.60;41.70;;;;;;5096933;28;19936;-54
2023/06/11 08:51:53;;;;;;;;;;;26.60;42.30;;;;;;5065841;28;20300;-53
2023/06/11 08:54:19;;;;;;;;;;;26.70;42.30;;;;;;5051791;28;19931;-53
2023/06/11 08:56:44;;;;;;;;;;;26.70;42.20;;;;;;5069349;28;20003;-54
2023/06/11 08:59:10;;;;;;;;;;;26.70;42.30;;;;;;5072224;28;19917;-54
2023/06/11 09:01:35;;;;;;;;;;;26.70;42.30;;;;;;5058565;28;19917;-53
2023/06/11 09:04:00;;;;;;;;;;;26.70;42.20;;;;;;5072145;28;19909;-54
2023/06/11 09:06:27;;;;;;;;;;;26.80;41.90;;;;;;5056308;28;20369;-54
2023/06/11 09:09:05;;;;;;;;;;;26.80;42.90;;;;;;5062476;28;20276;-53
2023/06/11 09:11:36;;;;;;;;;;;26.90;42.20;;;;;;5070533;28;19920;-54
2023/06/11 09:14:02;;;;;;;;;;;26.80;42.70;;;;;;5070609;28;20336;-53
2023/06/11 09:16:28;;;;;;;;;;;26.90;41.80;;;;;;5062697;28;19913;-53
2023/06/11 09:18:54;;;;;;;;;;;26.90;42.50;;;;;;5061379;28;19912;-54
2023/06/11 09:21:21;;;;;;;;;;;26.90;42.00;;;;;;5066697;28;19913;-53
2023/06/11 09:23:47;;;;;;;;;;;27.00;41.90;;;;;;5056249;28;20398;-53
2023/06/11 09:26:15;;;;;;;;;;;27.00;42.30;;;;;;5070612;28;19943;-53
2023/06/11 09:28:41;;;;;;;;;;;27.00;42.60;;;;;;5068429;28;19919;-53
2023/06/11 09:31:06;;;;;;;;;;;27.00;41.70;;;;;;5066024;28;19913;-54
2023/06/11 09:33:32;;;;;;;;;;;27.10;41.80;;;;;;5072383;28;19916;-53
2023/06/11 09:35:57;;;;;;;;;;;27.10;41.20;;;;;;5055468;28;19967;-53
2023/06/11 09:38:23;;;;;;;;;;;27.10;41.50;;;;;;5055906;28;20019;-54
2023/06/11 09:40:49;;;;;;;;;;;27.10;41.20;;;;;;5054913;28;19909;-53
2023/06/11 09:43:15;;;;;;;;;;;27.10;41.20;;;;;;5065668;28;19967;-53
2023/06/11 09:45:40;;;;;;;;;;;27.20;41.30;;;;;;5065182;28;19956;-53
2023/06/11 09:48:08;;;;;;;;;;;27.20;41.20;;;;;;5055570;28;19916;-53
2023/06/11 09:50:33;;;;;;;;;;;27.20;41.70;;;;;;5054069;28;20319;-53
2023/06/11 09:53:02;;;;;;;;;;;27.20;41.10;;;;;;5055648;28;19958;-53
2023/06/11 09:55:29;;;;;;;;;;;27.20;41.80;;;;;;5054556;28;20456;-54
2023/06/11 09:57:55;;;;;;;;;;;27.20;40.80;;;;;;5066096;28;19913;-54
2023/06/11 10:00:20;;;;;;;;;;;27.30;40.90;;;;;;5057217;28;19985;-53
2023/06/11 10:02:46;;;;;;;;;;;27.30;40.90;;;;;;5054052;28;20315;-53
2023/06/11 10:05:12;;;;;;;;;;;27.20;40.30;;;;;;5053443;28;19913;-54
2023/06/11 10:07:42;;;;;;;;;;;27.40;40.90;;;;;;5100984;28;19912;-53
2023/06/11 10:10:08;;;;;;;;;;;27.40;40.30;;;;;;5072271;28;19912;-53
2023/06/11 10:12:33;;;;;;;;;;;27.40;40.30;;;;;;5099065;28;19919;-54
2023/06/11 10:14:59;;;;;;;;;;;27.40;40.60;;;;;;5070217;28;19917;-56
2023/06/11 10:17:24;;;;;;;;;;;27.40;41.10;;;;;;5055219;28;19943;-55
2023/06/11 10:19:51;;;;;;;;;;;27.40;41.20;;;;;;5060081;28;19993;-55
2023/06/11 10:22:20;;;;;;;;;;;27.40;40.70;;;;;;5064058;28;19946;-55
2023/06/11 10:24:54;;;;;;;;;;;27.40;39.60;;;;;;5071725;28;19922;-54
2023/06/11 10:27:20;;;;;;;;;;;27.50;39.50;;;;;;5096713;28;19931;-54
2023/06/11 10:29:48;;;;;;;;;;;27.50;40.20;;;;;;5092282;28;19920;-53
2023/06/11 10:32:15;;;;;;;;;;;27.50;39.90;;;;;;5072663;28;20302;-54
2023/06/11 10:34:41;;;;;;;;;;;27.60;40.00;;;;;;5063635;28;19917;-54
2023/06/11 10:37:06;;;;;;;;;;;27.60;40.50;;;;;;5061518;28;19959;-53
2023/06/11 10:39:32;;;;;;;;;;;27.60;40.60;;;;;;5072186;28;19913;-54
2023/06/11 10:41:58;;;;;;;;;;;27.60;40.20;;;;;;5056701;28;19917;-53
2023/06/11 10:44:26;;;;;;;;;;;27.60;39.50;;;;;;5054022;28;19921;-54
2023/06/11 10:46:52;;;;;;;;;;;27.70;39.90;;;;;;5057097;28;20254;-54
2023/06/11 10:49:21;;;;;;;;;;;27.70;40.00;;;;;;5055231;28;20114;-54
2023/06/11 10:51:46;;;;;;;;;;;27.70;39.30;;;;;;5059258;28;19913;-54
2023/06/11 10:54:22;;;;;;;;;;;27.70;38.50;;;;;;5087319;28;19924;-54
2023/06/11 10:56:47;;;;;;;;;;;27.70;39.30;;;;;;5097842;28;19919;-54
2023/06/11 10:59:13;;;;;;;;;;;27.70;39.30;;;;;;5072720;28;20002;-54
2023/06/11 11:01:38;;;;;;;;;;;27.70;40.20;;;;;;5089184;28;19909;-54
2023/06/11 11:04:04;;;;;;;;;;;27.80;38.80;;;;;;5067298;28;19913;-53
2023/06/11 11:06:30;;;;;;;;;;;27.90;38.70;;;;;;5093089;28;19916;-54
2023/06/11 11:08:55;;;;;;;;;;;27.90;39.00;;;;;;5066933;28;19960;-54
2023/06/11 11:11:21;;;;;;;;;;;27.90;39.50;;;;;;5071457;28;20364;-53
2023/06/11 11:13:46;;;;;;;;;;;27.90;38.90;;;;;;5106700;28;19909;-54
2023/06/11 11:16:12;;;;;;;;;;;28.00;38.50;;;;;;5063773;28;19994;-54
2023/06/11 11:18:37;;;;;;;;;;;28.00;38.40;;;;;;5054047;28;19913;-53
2023/06/11 11:21:03;;;;;;;;;;;28.00;38.60;;;;;;5097985;28;20406;-53
2023/06/11 11:23:31;;;;;;;;;;;28.00;39.30;;;;;;5063956;28;20261;-53
2023/06/11 11:25:56;;;;;;;;;;;28.00;38.90;;;;;;5060903;28;19912;-53
2023/06/11 11:28:21;;;;;;;;;;;28.00;38.40;;;;;;5060224;28;19951;-53
2023/06/11 11:30:47;;;;;;;;;;;28.10;39.60;;;;;;5064441;28;19954;-53
2023/06/11 11:33:12;;;;;;;;;;;28.10;38.70;;;;;;5073558;28;19916;-53
2023/06/11 11:35:45;;;;;;;;;;;28.10;38.50;;;;;;5105999;28;19958;-53
2023/06/11 11:38:11;;;;;;;;;;;28.10;38.30;;;;;;5064986;28;19913;-54
2023/06/11 11:40:36;;;;;;;;;;;28.20;38.50;;;;;;5052790;28;20015;-53
2023/06/11 11:43:01;;;;;;;;;;;28.20;38.50;;;;;;5064203;28;19924;-54
2023/06/11 11:45:31;;;;;;;;;;;28.20;38.00;;;;;;5059862;28;19935;-54
2023/06/11 11:47:56;;;;;;;;;;;28.30;37.70;;;;;;5053694;28;19909;-53
2023/06/11 11:50:22;;;;;;;;;;;28.30;37.80;;;;;;5053101;28;19920;-53
2023/06/11 11:53:04;;;;;;;;;;;28.30;36.80;;;;;;5052237;28;19916;-54
2023/06/11 11:55:36;;;;;;;;;;;28.30;38.10;;;;;;5051001;28;20329;-53
2023/06/11 11:58:05;;;;;;;;;;;28.30;37.80;;;;;;5051287;28;19967;-53
2023/06/11 12:00:31;;;;;;;;;;;28.30;38.20;;;;;;5087730;28;19916;-54
2023/06/11 12:02:56;;;;;;;;;;;28.30;38.70;;;;;;5070700;28;19912;-53
2023/06/11 12:05:26;;;;;;;;;;;28.30;38.10;;;;;;5070365;28;20013;-53
2023/06/11 12:07:52;;;;;;;;;;;28.30;37.40;;;;;;5073179;28;19999;-53
2023/06/11 12:10:17;;;;;;;;;;;28.40;37.30;;;;;;5069344;28;20011;-53
2023/06/11 12:12:43;;;;;;;;;;;28.40;36.80;;;;;;5066732;28;19919;-53
2023/06/11 12:15:08;;;;;;;;;;;28.40;37.30;;;;;;5062700;28;19920;-53
2023/06/11 12:17:34;;;;;;;;;;;28.40;36.70;;;;;;5051191;28;19920;-53
2023/06/11 12:19:59;;;;;;;;;;;28.40;37.90;;;;;;5059279;28;19908;-53
2023/06/11 12:22:26;;;;;;;;;;;28.40;37.60;;;;;;5071405;28;19913;-54
2023/06/11 12:24:51;;;;;;;;;;;28.40;37.10;;;;;;5069565;28;19915;-53
2023/06/11 12:27:17;;;;;;;;;;;28.40;37.50;;;;;;5072759;28;19916;-53
2023/06/11 12:29:42;;;;;;;;;;;28.40;37.30;;;;;;5055205;28;19917;-53
2023/06/11 12:32:14;;;;;;;;;;;28.40;37.90;;;;;;5055355;28;19917;-53
2023/06/11 12:34:39;;;;;;;;;;;28.40;37.30;;;;;;5057255;28;20373;-53
2023/06/11 12:37:06;;;;;;;;;;;28.50;37.40;;;;;;5057343;28;19917;-54
2023/06/11 12:39:32;;;;;;;;;;;28.50;37.10;;;;;;5058892;28;20041;-54
2023/06/11 12:41:57;;;;;;;;;;;28.50;37.90;;;;;;5051221;28;19912;-53
2023/06/11 12:44:23;;;;;;;;;;;28.50;37.40;;;;;;5059482;28;19920;-54
2023/06/11 12:46:49;;;;;;;;;;;28.50;37.20;;;;;;5064160;28;19913;-54
2023/06/11 12:49:14;;;;;;;;;;;28.50;37.40;;;;;;5055429;28;19948;-53
2023/06/11 12:51:45;;;;;;;;;;;28.60;37.90;;;;;;5059847;28;19978;-54
2023/06/11 12:54:12;;;;;;;;;;;28.60;36.80;;;;;;5079262;28;19942;-53
2023/06/11 12:56:37;;;;;;;;;;;28.60;36.60;;;;;;5059425;28;19913;-53
2023/06/11 12:59:03;;;;;;;;;;;28.60;36.40;;;;;;5085305;28;19916;-54
2023/06/11 13:01:28;;;;;;;;;;;28.60;38.40;;;;;;5051650;28;19972;-55
2023/06/11 13:03:54;;;;;;;;;;;28.60;36.70;;;;;;5083109;28;19918;-53
2023/06/11 13:06:20;;;;;;;;;;;28.60;36.70;;;;;;5068125;28;19920;-54
2023/06/11 13:08:45;;;;;;;;;;;28.70;36.70;;;;;;5055979;28;20015;-53
2023/06/11 13:11:11;;;;;;;;;;;28.60;37.20;;;;;;5063663;28;19916;-54
2023/06/11 13:13:36;;;;;;;;;;;28.70;36.50;;;;;;5072160;28;19908;-54
2023/06/11 13:16:02;;;;;;;;;;;28.70;37.00;;;;;;5070050;28;20373;-53
2023/06/11 13:18:28;;;;;;;;;;;28.70;36.90;;;;;;5059681;28;19913;-54
2023/06/11 13:20:53;;;;;;;;;;;28.70;36.10;;;;;;5062219;28;19917;-54
2023/06/11 13:23:20;;;;;;;;;;;28.70;36.20;;;;;;5086407;28;20295;-54
2023/06/11 13:25:45;;;;;;;;;;;28.80;36.10;;;;;;5065221;28;19917;-53
2023/06/11 13:28:11;;;;;;;;;;;28.80;36.40;;;;;;5071295;28;19950;-53
2023/06/11 13:30:37;;;;;;;;;;;28.80;36.10;;;;;;5071928;28;19912;-54
2023/06/11 13:33:02;;;;;;;;;;;28.80;36.40;;;;;;5071927;28;20372;-54
2023/06/11 13:35:28;;;;;;;;;;;28.80;36.20;;;;;;5071736;28;19915;-54
2023/06/11 13:37:53;;;;;;;;;;;28.80;35.70;;;;;;5103593;28;19935;-53
2023/06/11 13:40:19;;;;;;;;;;;28.80;36.10;;;;;;5103197;28;19909;-53
2023/06/11 13:42:44;;;;;;;;;;;28.80;35.60;;;;;;5071661;28;20296;-53
2023/06/11 13:45:10;;;;;;;;;;;28.80;36.20;;;;;;5052017;28;19912;-53
2023/06/11 13:47:35;;;;;;;;;;;28.80;35.60;;;;;;5052152;28;20334;-53
2023/06/11 13:50:01;;;;;;;;;;;28.80;36.10;;;;;;5051641;28;19912;-54
2023/06/11 13:52:26;;;;;;;;;;;28.90;36.00;;;;;;5051960;28;19920;-54
2023/06/11 13:54:53;;;;;;;;;;;28.80;36.20;;;;;;5056322;28;19917;-53
2023/06/11 13:57:19;;;;;;;;;;;28.80;35.90;;;;;;5063408;28;19916;-53
2023/06/11 13:59:45;;;;;;;;;;;28.80;35.90;;;;;;5081743;28;19938;-54
2023/06/11 14:02:10;;;;;;;;;;;28.80;35.80;;;;;;5057822;28;19920;-53
2023/06/11 14:04:36;;;;;;;;;;;28.80;35.40;;;;;;5070836;28;19960;-54
2023/06/11 14:07:03;;;;;;;;;;;28.90;35.50;;;;;;5072281;28;19919;-54
2023/06/11 14:09:28;;;;;;;;;;;28.90;35.90;;;;;;5070941;28;19913;-54